Terminal Aerodrome Forecast
Issued by NWS

Home | Current Version | Previous Version | Text Only | Print | Product List | Glossary On
Versions: 1 2 3 4 5 6 7 8 9 10 11 12 13 14 15 16 17 18 19 20 21 22 23 24 25
000
FTUS43 KTOP 011725
TAFFOE
TAF
KFOE 011725Z 0118/0218 30016G27KT P6SM SKC
     FM020100 31009KT P6SM SKC
     FM020900 23005KT P6SM SKC
     FM021600 29010KT P6SM FEW200=

USA.gov is the U.S. government's official web portal to all federal, state and local government web resources and services.